sensor_id;sensor_type;location;lat;lon;timestamp;temperature;humidity
22416;DHT22;12204;50.600;4.608;2022-12-18T00:03:17;21.40;58.70
22416;DHT22;12204;50.600;4.608;2022-12-18T00:08:21;21.40;58.70
22416;DHT22;12204;50.600;4.608;2022-12-18T00:13:25;21.40;59.10
22416;DHT22;12204;50.600;4.608;2022-12-18T00:18:30;21.40;59.10
22416;DHT22;12204;50.600;4.608;2022-12-18T00:23:35;21.30;59.10
22416;DHT22;12204;50.600;4.608;2022-12-18T00:28:40;21.30;59.10
22416;DHT22;12204;50.600;4.608;2022-12-18T00:33:46;21.20;59.00
22416;DHT22;12204;50.600;4.608;2022-12-18T00:38:56;21.20;59.20
22416;DHT22;12204;50.600;4.608;2022-12-18T00:44:03;21.10;59.30
22416;DHT22;12204;50.600;4.608;2022-12-18T00:49:13;21.10;59.40
22416;DHT22;12204;50.600;4.608;2022-12-18T00:54:17;21.00;59.30
22416;DHT22;12204;50.600;4.608;2022-12-18T00:59:21;21.00;59.30
22416;DHT22;12204;50.600;4.608;2022-12-18T01:04:26;21.00;59.60
22416;DHT22;12204;50.600;4.608;2022-12-18T01:09:30;20.90;59.80
22416;DHT22;12204;50.600;4.608;2022-12-18T01:14:34;20.90;59.70
22416;DHT22;12204;50.600;4.608;2022-12-18T01:19:39;21.00;59.80
22416;DHT22;12204;50.600;4.608;2022-12-18T01:24:44;20.90;59.50
22416;DHT22;12204;50.600;4.608;2022-12-18T01:29:49;21.00;59.30
22416;DHT22;12204;50.600;4.608;2022-12-18T01:34:55;21.00;59.10
22416;DHT22;12204;50.600;4.608;2022-12-18T01:40:00;21.10;59.10
22416;DHT22;12204;50.600;4.608;2022-12-18T01:45:08;21.10;58.90
22416;DHT22;12204;50.600;4.608;2022-12-18T01:50:33;21.20;58.80
22416;DHT22;12204;50.600;4.608;2022-12-18T01:55:43;21.20;58.60
22416;DHT22;12204;50.600;4.608;2022-12-18T02:00:51;21.20;58.50
22416;DHT22;12204;50.600;4.608;2022-12-18T02:06:00;21.20;58.40
22416;DHT22;12204;50.600;4.608;2022-12-18T02:11:18;21.20;58.50
22416;DHT22;12204;50.600;4.608;2022-12-18T02:16:38;21.10;58.30
22416;DHT22;12204;50.600;4.608;2022-12-18T02:21:53;21.10;58.50
22416;DHT22;12204;50.600;4.608;2022-12-18T02:27:05;21.10;58.00
22416;DHT22;12204;50.600;4.608;2022-12-18T02:32:14;21.00;58.40
22416;DHT22;12204;50.600;4.608;2022-12-18T02:37:22;21.00;58.50
22416;DHT22;12204;50.600;4.608;2022-12-18T02:42:29;21.00;58.50
22416;DHT22;12204;50.600;4.608;2022-12-18T02:47:37;20.90;58.60
22416;DHT22;12204;50.600;4.608;2022-12-18T02:52:53;20.90;58.80
22416;DHT22;12204;50.600;4.608;2022-12-18T02:58:11;20.90;58.80
22416;DHT22;12204;50.600;4.608;2022-12-18T03:03:27;20.90;58.80
22416;DHT22;12204;50.600;4.608;2022-12-18T03:08:37;20.90;58.70
22416;DHT22;12204;50.600;4.608;2022-12-18T03:13:49;21.00;58.70
22416;DHT22;12204;50.600;4.608;2022-12-18T03:18:58;20.90;58.60
22416;DHT22;12204;50.600;4.608;2022-12-18T03:24:07;21.00;58.40
22416;DHT22;12204;50.600;4.608;2022-12-18T03:29:19;21.00;58.30
22416;DHT22;12204;50.600;4.608;2022-12-18T03:34:29;21.00;58.10
22416;DHT22;12204;50.600;4.608;2022-12-18T03:39:38;21.00;58.00
22416;DHT22;12204;50.600;4.608;2022-12-18T03:44:48;21.00;58.00
22416;DHT22;12204;50.600;4.608;2022-12-18T03:50:07;21.00;58.00
22416;DHT22;12204;50.600;4.608;2022-12-18T03:55:21;21.00;57.90
22416;DHT22;12204;50.600;4.608;2022-12-18T04:00:34;21.00;58.00
22416;DHT22;12204;50.600;4.608;2022-12-18T04:05:44;21.00;58.10
22416;DHT22;12204;50.600;4.608;2022-12-18T04:10:51;21.00;58.20
22416;DHT22;12204;50.600;4.608;2022-12-18T04:15:57;21.00;58.20
22416;DHT22;12204;50.600;4.608;2022-12-18T04:21:02;21.00;58.20
22416;DHT22;12204;50.600;4.608;2022-12-18T04:26:07;21.00;58.10
22416;DHT22;12204;50.600;4.608;2022-12-18T04:31:36;21.00;58.10
22416;DHT22;12204;50.600;4.608;2022-12-18T04:36:40;21.00;58.00
22416;DHT22;12204;50.600;4.608;2022-12-18T04:41:44;21.00;57.80
22416;DHT22;12204;50.600;4.608;2022-12-18T04:46:49;21.00;57.90
22416;DHT22;12204;50.600;4.608;2022-12-18T04:51:53;21.00;57.80
22416;DHT22;12204;50.600;4.608;2022-12-18T04:56:57;21.00;57.80
22416;DHT22;12204;50.600;4.608;2022-12-18T05:02:02;21.00;57.70
22416;DHT22;12204;50.600;4.608;2022-12-18T05:07:06;21.00;57.60
22416;DHT22;12204;50.600;4.608;2022-12-18T05:12:10;21.00;57.80
22416;DHT22;12204;50.600;4.608;2022-12-18T05:17:15;21.00;58.00
22416;DHT22;12204;50.600;4.608;2022-12-18T05:22:18;20.90;58.20
22416;DHT22;12204;50.600;4.608;2022-12-18T05:27:22;20.90;58.30
22416;DHT22;12204;50.600;4.608;2022-12-18T05:32:27;20.80;58.20
22416;DHT22;12204;50.600;4.608;2022-12-18T05:37:31;20.80;58.20
22416;DHT22;12204;50.600;4.608;2022-12-18T05:42:41;20.80;58.20
22416;DHT22;12204;50.600;4.608;2022-12-18T05:47:47;20.70;58.10
22416;DHT22;12204;50.600;4.608;2022-12-18T05:52:50;20.70;58.30
22416;DHT22;12204;50.600;4.608;2022-12-18T05:57:54;20.60;57.70
22416;DHT22;12204;50.600;4.608;2022-12-18T06:02:59;20.60;58.40
22416;DHT22;12204;50.600;4.608;2022-12-18T06:08:03;20.60;57.60
22416;DHT22;12204;50.600;4.608;2022-12-18T06:13:08;20.60;57.80
22416;DHT22;12204;50.600;4.608;2022-12-18T06:18:13;20.50;58.00
22416;DHT22;12204;50.600;4.608;2022-12-18T06:23:16;20.50;58.00
22416;DHT22;12204;50.600;4.608;2022-12-18T06:28:20;20.50;58.40
22416;DHT22;12204;50.600;4.608;2022-12-18T06:33:27;20.50;58.40
22416;DHT22;12204;50.600;4.608;2022-12-18T06:38:31;20.40;58.70
22416;DHT22;12204;50.600;4.608;2022-12-18T06:43:36;20.40;58.70
22416;DHT22;12204;50.600;4.608;2022-12-18T06:48:41;20.40;58.60
22416;DHT22;12204;50.600;4.608;2022-12-18T06:53:45;20.40;57.90
22416;DHT22;12204;50.600;4.608;2022-12-18T06:58:50;20.40;57.60
22416;DHT22;12204;50.600;4.608;2022-12-18T07:03:56;20.40;57.40
22416;DHT22;12204;50.600;4.608;2022-12-18T07:09:00;20.40;57.30
22416;DHT22;12204;50.600;4.608;2022-12-18T07:14:04;20.40;57.20
22416;DHT22;12204;50.600;4.608;2022-12-18T07:19:09;20.50;57.10
22416;DHT22;12204;50.600;4.608;2022-12-18T07:24:13;20.50;57.30
22416;DHT22;12204;50.600;4.608;2022-12-18T07:29:16;20.50;57.40
22416;DHT22;12204;50.600;4.608;2022-12-18T07:34:21;20.50;57.20
22416;DHT22;12204;50.600;4.608;2022-12-18T07:39:25;20.50;57.10
22416;DHT22;12204;50.600;4.608;2022-12-18T07:44:29;20.50;57.10
22416;DHT22;12204;50.600;4.608;2022-12-18T07:49:34;20.50;57.30
22416;DHT22;12204;50.600;4.608;2022-12-18T07:54:38;20.50;57.20
22416;DHT22;12204;50.600;4.608;2022-12-18T07:59:42;20.50;57.60
22416;DHT22;12204;50.600;4.608;2022-12-18T08:04:47;20.50;57.70
22416;DHT22;12204;50.600;4.608;2022-12-18T08:09:50;20.60;57.60
22416;DHT22;12204;50.600;4.608;2022-12-18T08:14:54;20.50;57.60
22416;DHT22;12204;50.600;4.608;2022-12-18T08:19:59;20.50;57.60
22416;DHT22;12204;50.600;4.608;2022-12-18T08:25:03;20.50;57.70
22416;DHT22;12204;50.600;4.608;2022-12-18T08:30:10;20.50;57.90
22416;DHT22;12204;50.600;4.608;2022-12-18T08:35:16;20.50;58.10
22416;DHT22;12204;50.600;4.608;2022-12-18T08:40:20;20.50;58.50
22416;DHT22;12204;50.600;4.608;2022-12-18T08:45:24;20.40;58.60
22416;DHT22;12204;50.600;4.608;2022-12-18T08:50:29;20.40;59.20
22416;DHT22;12204;50.600;4.608;2022-12-18T08:55:33;20.30;59.40
22416;DHT22;12204;50.600;4.608;2022-12-18T09:00:36;20.20;59.50
22416;DHT22;12204;50.600;4.608;2022-12-18T09:05:41;20.10;59.60
22416;DHT22;12204;50.600;4.608;2022-12-18T09:10:47;20.10;59.80
22416;DHT22;12204;50.600;4.608;2022-12-18T09:15:54;20.00;59.90
22416;DHT22;12204;50.600;4.608;2022-12-18T09:20:59;19.90;58.20
22416;DHT22;12204;50.600;4.608;2022-12-18T09:26:03;19.80;57.00
22416;DHT22;12204;50.600;4.608;2022-12-18T09:31:07;19.60;56.10
22416;DHT22;12204;50.600;4.608;2022-12-18T09:36:17;19.50;55.40
22416;DHT22;12204;50.600;4.608;2022-12-18T09:41:37;19.40;54.40
22416;DHT22;12204;50.600;4.608;2022-12-18T09:46:49;19.40;53.80
22416;DHT22;12204;50.600;4.608;2022-12-18T09:52:02;19.50;52.80
22416;DHT22;12204;50.600;4.608;2022-12-18T09:57:12;19.50;52.60
22416;DHT22;12204;50.600;4.608;2022-12-18T10:02:19;19.50;53.90
22416;DHT22;12204;50.600;4.608;2022-12-18T10:07:31;19.60;54.50
22416;DHT22;12204;50.600;4.608;2022-12-18T10:12:50;19.60;55.00
22416;DHT22;12204;50.600;4.608;2022-12-18T10:18:17;19.60;55.40
22416;DHT22;12204;50.600;4.608;2022-12-18T10:23:36;19.60;55.70
22416;DHT22;12204;50.600;4.608;2022-12-18T10:28:49;19.60;56.00
22416;DHT22;12204;50.600;4.608;2022-12-18T10:33:54;19.60;56.10
22416;DHT22;12204;50.600;4.608;2022-12-18T10:39:14;19.60;56.40
22416;DHT22;12204;50.600;4.608;2022-12-18T10:44:21;19.60;56.70
22416;DHT22;12204;50.600;4.608;2022-12-18T10:49:29;19.50;56.80
22416;DHT22;12204;50.600;4.608;2022-12-18T10:54:37;19.50;57.10
22416;DHT22;12204;50.600;4.608;2022-12-18T10:59:52;19.50;57.40
22416;DHT22;12204;50.600;4.608;2022-12-18T11:04:58;19.40;57.50
22416;DHT22;12204;50.600;4.608;2022-12-18T11:10:04;19.40;57.70
22416;DHT22;12204;50.600;4.608;2022-12-18T11:15:21;19.40;57.90
22416;DHT22;12204;50.600;4.608;2022-12-18T11:20:32;19.40;58.20
22416;DHT22;12204;50.600;4.608;2022-12-18T11:25:50;19.40;58.40
22416;DHT22;12204;50.600;4.608;2022-12-18T11:31:17;19.30;58.40
22416;DHT22;12204;50.600;4.608;2022-12-18T11:36:27;19.30;58.60
22416;DHT22;12204;50.600;4.608;2022-12-18T11:41:41;19.30;58.70
22416;DHT22;12204;50.600;4.608;2022-12-18T11:47:27;19.20;58.80
22416;DHT22;12204;50.600;4.608;2022-12-18T11:52:40;19.20;58.90
22416;DHT22;12204;50.600;4.608;2022-12-18T11:57:53;19.20;58.90
22416;DHT22;12204;50.600;4.608;2022-12-18T12:03:17;19.20;59.20
22416;DHT22;12204;50.600;4.608;2022-12-18T12:08:37;19.20;59.30
22416;DHT22;12204;50.600;4.608;2022-12-18T12:13:55;19.20;59.60
22416;DHT22;12204;50.600;4.608;2022-12-18T12:19:23;19.10;59.70
22416;DHT22;12204;50.600;4.608;2022-12-18T12:24:49;19.10;59.80
22416;DHT22;12204;50.600;4.608;2022-12-18T12:30:07;19.10;59.90
22416;DHT22;12204;50.600;4.608;2022-12-18T12:40:51;19.10;60.10
22416;DHT22;12204;50.600;4.608;2022-12-18T12:46:07;19.10;60.30
22416;DHT22;12204;50.600;4.608;2022-12-18T12:51:18;19.10;60.40
22416;DHT22;12204;50.600;4.608;2022-12-18T12:56:27;19.10;60.50
22416;DHT22;12204;50.600;4.608;2022-12-18T13:01:41;19.00;61.40
22416;DHT22;12204;50.600;4.608;2022-12-18T13:07:03;19.00;60.70
22416;DHT22;12204;50.600;4.608;2022-12-18T13:12:13;19.00;60.80
22416;DHT22;12204;50.600;4.608;2022-12-18T13:17:38;19.00;61.70
22416;DHT22;12204;50.600;4.608;2022-12-18T13:22:44;19.00;61.40
22416;DHT22;12204;50.600;4.608;2022-12-18T13:28:01;19.10;62.10
22416;DHT22;12204;50.600;4.608;2022-12-18T13:39:32;19.00;59.50
22416;DHT22;12204;50.600;4.608;2022-12-18T13:44:39;19.00;58.30
22416;DHT22;12204;50.600;4.608;2022-12-18T13:49:46;18.90;57.10
22416;DHT22;12204;50.600;4.608;2022-12-18T13:54:52;18.90;56.30
22416;DHT22;12204;50.600;4.608;2022-12-18T14:00:14;18.90;56.40
22416;DHT22;12204;50.600;4.608;2022-12-18T14:05:30;19.00;56.10
22416;DHT22;12204;50.600;4.608;2022-12-18T14:10:40;19.00;54.90
22416;DHT22;12204;50.600;4.608;2022-12-18T14:15:50;19.00;54.20
22416;DHT22;12204;50.600;4.608;2022-12-18T14:20:58;19.00;55.30
22416;DHT22;12204;50.600;4.608;2022-12-18T14:26:20;19.00;55.90
22416;DHT22;12204;50.600;4.608;2022-12-18T14:31:28;19.00;56.40
22416;DHT22;12204;50.600;4.608;2022-12-18T14:36:35;19.00;56.90
22416;DHT22;12204;50.600;4.608;2022-12-18T14:41:41;19.00;57.90
22416;DHT22;12204;50.600;4.608;2022-12-18T14:46:46;19.00;58.10
22416;DHT22;12204;50.600;4.608;2022-12-18T14:51:53;18.90;58.20
22416;DHT22;12204;50.600;4.608;2022-12-18T14:57:01;18.90;58.40
22416;DHT22;12204;50.600;4.608;2022-12-18T15:02:12;18.90;58.60
22416;DHT22;12204;50.600;4.608;2022-12-18T15:07:23;18.90;58.80
22416;DHT22;12204;50.600;4.608;2022-12-18T15:12:33;18.90;59.00
22416;DHT22;12204;50.600;4.608;2022-12-18T15:17:38;18.90;59.30
22416;DHT22;12204;50.600;4.608;2022-12-18T15:22:47;18.80;59.30
22416;DHT22;12204;50.600;4.608;2022-12-18T15:27:50;18.80;59.40
22416;DHT22;12204;50.600;4.608;2022-12-18T15:33:16;18.80;59.70
22416;DHT22;12204;50.600;4.608;2022-12-18T15:38:29;18.80;60.00
22416;DHT22;12204;50.600;4.608;2022-12-18T15:43:33;18.90;60.50
22416;DHT22;12204;50.600;4.608;2022-12-18T15:48:39;18.80;60.40
22416;DHT22;12204;50.600;4.608;2022-12-18T15:53:46;18.80;60.40
22416;DHT22;12204;50.600;4.608;2022-12-18T15:58:50;18.80;60.60
22416;DHT22;12204;50.600;4.608;2022-12-18T16:03:54;18.80;60.60
22416;DHT22;12204;50.600;4.608;2022-12-18T16:09:00;18.80;60.60
22416;DHT22;12204;50.600;4.608;2022-12-18T16:14:05;18.70;60.60
22416;DHT22;12204;50.600;4.608;2022-12-18T16:19:17;18.70;60.80
22416;DHT22;12204;50.600;4.608;2022-12-18T16:24:25;18.70;60.80
22416;DHT22;12204;50.600;4.608;2022-12-18T16:29:31;18.70;60.80
22416;DHT22;12204;50.600;4.608;2022-12-18T16:34:35;18.70;60.80
22416;DHT22;12204;50.600;4.608;2022-12-18T16:39:41;18.70;61.80
22416;DHT22;12204;50.600;4.608;2022-12-18T16:44:46;18.70;61.00
22416;DHT22;12204;50.600;4.608;2022-12-18T16:49:51;18.60;61.00
22416;DHT22;12204;50.600;4.608;2022-12-18T16:54:56;18.60;61.10
22416;DHT22;12204;50.600;4.608;2022-12-18T17:00:00;18.60;61.10
22416;DHT22;12204;50.600;4.608;2022-12-18T17:05:07;18.60;61.20
22416;DHT22;12204;50.600;4.608;2022-12-18T17:10:14;18.60;61.20
22416;DHT22;12204;50.600;4.608;2022-12-18T17:15:17;18.60;61.30
22416;DHT22;12204;50.600;4.608;2022-12-18T17:20:21;18.60;61.30
22416;DHT22;12204;50.600;4.608;2022-12-18T17:25:27;18.60;61.40
22416;DHT22;12204;50.600;4.608;2022-12-18T17:30:31;18.60;61.50
22416;DHT22;12204;50.600;4.608;2022-12-18T17:35:34;18.60;61.40
22416;DHT22;12204;50.600;4.608;2022-12-18T17:40:40;18.50;61.40
22416;DHT22;12204;50.600;4.608;2022-12-18T17:45:47;18.50;61.50
22416;DHT22;12204;50.600;4.608;2022-12-18T17:50:51;18.50;61.50
22416;DHT22;12204;50.600;4.608;2022-12-18T17:55:58;18.50;61.70
22416;DHT22;12204;50.600;4.608;2022-12-18T18:01:04;18.50;61.70
22416;DHT22;12204;50.600;4.608;2022-12-18T18:06:09;18.50;61.80
22416;DHT22;12204;50.600;4.608;2022-12-18T18:11:16;18.50;61.80
22416;DHT22;12204;50.600;4.608;2022-12-18T18:16:41;18.60;61.90
22416;DHT22;12204;50.600;4.608;2022-12-18T18:21:49;19.10;61.10
22416;DHT22;12204;50.600;4.608;2022-12-18T18:26:55;19.60;59.80
22416;DHT22;12204;50.600;4.608;2022-12-18T18:32:03;20.00;59.10
22416;DHT22;12204;50.600;4.608;2022-12-18T18:37:08;20.30;58.80
22416;DHT22;12204;50.600;4.608;2022-12-18T18:42:14;20.60;58.40
22416;DHT22;12204;50.600;4.608;2022-12-18T18:47:18;20.90;57.90
22416;DHT22;12204;50.600;4.608;2022-12-18T18:52:21;21.00;57.70
22416;DHT22;12204;50.600;4.608;2022-12-18T18:57:26;21.10;57.80
22416;DHT22;12204;50.600;4.608;2022-12-18T19:02:31;21.00;58.00
22416;DHT22;12204;50.600;4.608;2022-12-18T19:07:35;20.90;58.20
22416;DHT22;12204;50.600;4.608;2022-12-18T19:12:40;20.90;58.30
22416;DHT22;12204;50.600;4.608;2022-12-18T19:18:01;20.80;59.10
22416;DHT22;12204;50.600;4.608;2022-12-18T19:23:06;20.80;58.70
22416;DHT22;12204;50.600;4.608;2022-12-18T19:28:11;20.80;60.00
22416;DHT22;12204;50.600;4.608;2022-12-18T19:33:23;20.70;59.30
22416;DHT22;12204;50.600;4.608;2022-12-18T19:38:44;20.60;59.50
22416;DHT22;12204;50.600;4.608;2022-12-18T19:43:50;20.50;59.60
22416;DHT22;12204;50.600;4.608;2022-12-18T19:48:54;20.50;59.70
22416;DHT22;12204;50.600;4.608;2022-12-18T19:54:00;20.50;59.90
22416;DHT22;12204;50.600;4.608;2022-12-18T19:59:05;20.50;60.00
22416;DHT22;12204;50.600;4.608;2022-12-18T20:04:09;20.50;60.00
22416;DHT22;12204;50.600;4.608;2022-12-18T20:09:13;20.40;59.90
22416;DHT22;12204;50.600;4.608;2022-12-18T20:14:18;20.40;60.00
22416;DHT22;12204;50.600;4.608;2022-12-18T20:19:25;20.60;61.50
22416;DHT22;12204;50.600;4.608;2022-12-18T20:24:30;20.60;61.20
22416;DHT22;12204;50.600;4.608;2022-12-18T20:29:35;20.60;61.60
22416;DHT22;12204;50.600;4.608;2022-12-18T20:34:38;20.50;61.40
22416;DHT22;12204;50.600;4.608;2022-12-18T20:39:42;20.50;61.40
22416;DHT22;12204;50.600;4.608;2022-12-18T20:44:48;20.50;61.30
22416;DHT22;12204;50.600;4.608;2022-12-18T20:49:52;20.60;61.30
22416;DHT22;12204;50.600;4.608;2022-12-18T20:54:57;20.60;61.20
22416;DHT22;12204;50.600;4.608;2022-12-18T21:00:04;20.50;61.10
22416;DHT22;12204;50.600;4.608;2022-12-18T21:05:10;20.50;61.10
22416;DHT22;12204;50.600;4.608;2022-12-18T21:10:14;20.60;61.20
22416;DHT22;12204;50.600;4.608;2022-12-18T21:15:19;20.50;61.10
22416;DHT22;12204;50.600;4.608;2022-12-18T21:20:29;20.50;61.10
22416;DHT22;12204;50.600;4.608;2022-12-18T21:25:33;20.50;61.30
22416;DHT22;12204;50.600;4.608;2022-12-18T21:30:38;20.40;61.30
22416;DHT22;12204;50.600;4.608;2022-12-18T21:35:42;20.40;61.40
22416;DHT22;12204;50.600;4.608;2022-12-18T21:40:46;20.30;61.40
22416;DHT22;12204;50.600;4.608;2022-12-18T21:45:51;20.40;62.10
22416;DHT22;12204;50.600;4.608;2022-12-18T21:50:56;20.50;63.70
22416;DHT22;12204;50.600;4.608;2022-12-18T21:56:00;20.60;63.10
22416;DHT22;12204;50.600;4.608;2022-12-18T22:01:05;20.60;62.90
22416;DHT22;12204;50.600;4.608;2022-12-18T22:06:09;20.60;63.10
22416;DHT22;12204;50.600;4.608;2022-12-18T22:11:13;20.50;63.00
22416;DHT22;12204;50.600;4.608;2022-12-18T22:16:20;20.50;63.10
22416;DHT22;12204;50.600;4.608;2022-12-18T22:21:25;20.50;63.20
22416;DHT22;12204;50.600;4.608;2022-12-18T22:26:33;20.50;63.20
22416;DHT22;12204;50.600;4.608;2022-12-18T22:31:42;20.40;63.90
22416;DHT22;12204;50.600;4.608;2022-12-18T22:36:47;20.40;63.30
22416;DHT22;12204;50.600;4.608;2022-12-18T22:41:51;20.30;63.50
22416;DHT22;12204;50.600;4.608;2022-12-18T22:46:57;20.30;63.60
22416;DHT22;12204;50.600;4.608;2022-12-18T22:52:08;20.20;63.60
22416;DHT22;12204;50.600;4.608;2022-12-18T22:57:14;20.20;63.90
22416;DHT22;12204;50.600;4.608;2022-12-18T23:02:19;20.10;63.80
22416;DHT22;12204;50.600;4.608;2022-12-18T23:07:23;20.10;64.00
22416;DHT22;12204;50.600;4.608;2022-12-18T23:12:26;20.00;63.90
22416;DHT22;12204;50.600;4.608;2022-12-18T23:17:32;20.10;64.00
22416;DHT22;12204;50.600;4.608;2022-12-18T23:22:35;20.20;64.30
22416;DHT22;12204;50.600;4.608;2022-12-18T23:27:39;20.50;64.20
22416;DHT22;12204;50.600;4.608;2022-12-18T23:32:44;20.70;63.40
22416;DHT22;12204;50.600;4.608;2022-12-18T23:37:48;20.90;62.70
22416;DHT22;12204;50.600;4.608;2022-12-18T23:43:00;21.00;62.20
22416;DHT22;12204;50.600;4.608;2022-12-18T23:48:05;21.10;62.00
22416;DHT22;12204;50.600;4.608;2022-12-18T23:53:10;21.10;61.80
22416;DHT22;12204;50.600;4.608;2022-12-18T23:58:15;21.10;61.50
